Bogota, New Jersey
Current Conditions -  °F | °C
As of 4:51 PM on Saturday 27 Dec 2014 (Local Time) from KTEB Reporting Station
Clear Clear  
Wind Chill: 50°   Ceiling: Unl
Heat Index: 50°   Visibility: 10mi
Dew Point: 35°   Wind: 8mph
Humidity: 57%   Direction: 190°S
Pressure: 30.15"   Gusts: NA
Location:  40.88°N, 74.03°W
Report Text: KTEB 272151Z 19007KT 10SM CLR 10/02 A3015 RMK AO2 SLP209 T01000017 $
Loading
Personal Weather Stations






























Interactive Weather Map New forecast layout! Learn more

10-Day Weather Forecast

Advertisements
Track Severe Weather on mobile